Time;durP1;ratioP1;P1;durP2;ratioP2;P2;SDS_P1;SDS_P2;PMS_P1;PMS_P2;Temp;Humidity;BMP_temperature;BMP_pressure;BME280_temperature;BME280_humidity;BME280_pressure;Samples;Min_cycle;Max_cycle;Signal;HPM_P1;HPM_P2
2022/08/15 00:00:06;;;;;;;;;;;20.60;99.90;;;;;;6215718;23;19927;-68
2022/08/15 00:02:32;;;;;;;;;;;20.60;99.90;;;;;;6163257;23;19947;-68
2022/08/15 00:04:58;;;;;;;;;;;20.60;99.90;;;;;;6164549;23;19920;-68
2022/08/15 00:07:23;;;;;;;;;;;20.60;99.90;;;;;;6164895;23;19927;-68
2022/08/15 00:09:49;;;;;;;;;;;20.60;99.90;;;;;;6164645;23;19955;-68
2022/08/15 00:12:14;;;;;;;;;;;20.60;99.90;;;;;;6190862;23;19927;-68
2022/08/15 00:14:40;;;;;;;;;;;20.70;99.90;;;;;;6191613;23;19920;-67
2022/08/15 00:17:09;;;;;;;;;;;20.70;99.90;;;;;;6166359;23;20341;-68
2022/08/15 00:19:38;;;;;;;;;;;20.70;99.90;;;;;;6166640;23;20385;-68
2022/08/15 00:22:06;;;;;;;;;;;20.70;99.90;;;;;;6191397;23;19946;-68
2022/08/15 00:24:33;;;;;;;;;;;20.70;99.90;;;;;;6217557;23;19920;-68
2022/08/15 00:27:05;;;;;;;;;;;20.70;99.90;;;;;;6166007;23;19967;-68
2022/08/15 00:29:31;;;;;;;;;;;20.70;99.90;;;;;;6216942;23;20297;-68
2022/08/15 00:31:58;;;;;;;;;;;20.70;99.90;;;;;;6190370;23;19923;-67
2022/08/15 00:34:24;;;;;;;;;;;20.60;99.90;;;;;;6166249;23;19924;-67
2022/08/15 00:36:50;;;;;;;;;;;20.60;99.90;;;;;;6190163;23;20323;-68
2022/08/15 00:39:16;;;;;;;;;;;20.60;99.90;;;;;;6217256;23;19930;-67
2022/08/15 00:41:42;;;;;;;;;;;20.50;99.90;;;;;;6166090;23;19982;-68
2022/08/15 00:44:13;;;;;;;;;;;20.50;99.90;;;;;;6166029;23;19920;-67
2022/08/15 00:46:41;;;;;;;;;;;20.40;99.90;;;;;;6218028;23;19924;-68
2022/08/15 00:49:07;;;;;;;;;;;20.40;99.90;;;;;;6166384;23;19931;-67
2022/08/15 00:51:43;;;;;;;;;;;20.40;99.90;;;;;;6217688;23;19920;-67
2022/08/15 00:54:19;;;;;;;;;;;20.40;99.90;;;;;;6190173;23;19924;-68
2022/08/15 00:56:53;;;;;;;;;;;20.30;99.90;;;;;;6191007;23;19948;-68
2022/08/15 00:59:21;;;;;;;;;;;20.20;99.90;;;;;;6191361;23;19920;-67
2022/08/15 01:01:47;;;;;;;;;;;20.10;99.90;;;;;;6191048;23;20374;-68
2022/08/15 01:04:15;;;;;;;;;;;20.00;99.90;;;;;;6191146;23;19920;-67
2022/08/15 01:06:41;;;;;;;;;;;20.00;99.90;;;;;;6217076;23;19991;-67
2022/08/15 01:09:07;;;;;;;;;;;19.90;99.90;;;;;;6166288;23;19959;-68
2022/08/15 01:11:40;;;;;;;;;;;19.80;99.90;;;;;;6191134;23;19926;-68
2022/08/15 01:14:06;;;;;;;;;;;19.80;99.90;;;;;;6191050;23;19920;-67
2022/08/15 01:16:32;;;;;;;;;;;19.80;99.90;;;;;;6166259;23;20247;-68
2022/08/15 01:18:58;;;;;;;;;;;19.70;99.90;;;;;;6217455;23;19920;-67
2022/08/15 01:21:38;;;;;;;;;;;19.70;99.90;;;;;;6190910;23;19927;-68
2022/08/15 01:24:15;;;;;;;;;;;19.80;99.90;;;;;;6217580;23;19951;-67
2022/08/15 01:26:43;;;;;;;;;;;19.80;99.90;;;;;;6166453;23;19955;-67
2022/08/15 01:29:09;;;;;;;;;;;19.90;99.90;;;;;;6190991;23;19920;-67
2022/08/15 01:31:36;;;;;;;;;;;19.80;99.90;;;;;;6190660;23;19958;-67
2022/08/15 01:34:02;;;;;;;;;;;19.90;99.90;;;;;;6166139;23;19920;-67
2022/08/15 01:36:28;;;;;;;;;;;19.80;99.90;;;;;;6165689;23;19927;-68
2022/08/15 01:38:54;;;;;;;;;;;19.80;99.90;;;;;;6190826;23;19946;-67
2022/08/15 01:41:29;;;;;;;;;;;19.90;99.90;;;;;;6190241;23;19920;-68
2022/08/15 01:44:10;;;;;;;;;;;19.90;99.90;;;;;;6217173;23;19995;-67
2022/08/15 01:46:39;;;;;;;;;;;19.90;99.90;;;;;;6190942;23;19924;-67
2022/08/15 01:49:08;;;;;;;;;;;19.80;99.90;;;;;;6190865;23;19920;-67
2022/08/15 01:51:34;;;;;;;;;;;19.80;99.90;;;;;;6217241;23;19927;-67
2022/08/15 01:54:05;;;;;;;;;;;19.80;99.90;;;;;;6217231;23;19920;-67
2022/08/15 01:56:35;;;;;;;;;;;19.80;99.90;;;;;;6190619;23;19924;-68
2022/08/15 01:59:02;;;;;;;;;;;19.80;99.90;;;;;;6190029;23;19920;-67
2022/08/15 02:01:43;;;;;;;;;;;19.70;99.90;;;;;;6189875;23;19920;-67
2022/08/15 02:04:09;;;;;;;;;;;19.70;99.90;;;;;;6190689;23;19966;-67
2022/08/15 02:06:35;;;;;;;;;;;19.70;99.90;;;;;;6190589;23;19994;-67
2022/08/15 02:09:02;;;;;;;;;;;19.60;99.90;;;;;;6191001;23;20236;-67
2022/08/15 02:11:29;;;;;;;;;;;19.50;99.90;;;;;;6190464;23;20254;-67
2022/08/15 02:13:56;;;;;;;;;;;19.60;99.90;;;;;;6190204;23;20395;-68
2022/08/15 02:16:23;;;;;;;;;;;19.70;99.90;;;;;;6190471;23;19927;-68
2022/08/15 02:18:49;;;;;;;;;;;19.70;99.90;;;;;;6190472;23;19927;-68
2022/08/15 02:21:14;;;;;;;;;;;19.60;99.90;;;;;;6165629;23;19991;-68
2022/08/15 02:23:40;;;;;;;;;;;19.60;99.90;;;;;;6217064;23;19927;-67
2022/08/15 02:26:06;;;;;;;;;;;19.70;99.90;;;;;;6190391;23;19951;-67
2022/08/15 02:28:33;;;;;;;;;;;19.70;99.90;;;;;;6217009;23;19919;-68
2022/08/15 02:30:58;;;;;;;;;;;19.70;99.90;;;;;;6190288;23;19923;-68
2022/08/15 02:33:24;;;;;;;;;;;19.70;99.90;;;;;;6190257;23;19951;-67
2022/08/15 02:35:51;;;;;;;;;;;19.60;99.90;;;;;;6190066;23;19923;-67
2022/08/15 02:38:17;;;;;;;;;;;19.60;99.90;;;;;;6165396;23;19970;-67
2022/08/15 02:40:43;;;;;;;;;;;19.50;99.90;;;;;;6190171;23;19998;-67
2022/08/15 02:43:10;;;;;;;;;;;19.50;99.90;;;;;;6190346;23;20322;-68
2022/08/15 02:45:38;;;;;;;;;;;19.50;99.90;;;;;;6184681;23;19924;-68
2022/08/15 02:48:08;;;;;;;;;;;19.40;99.90;;;;;;6160407;23;19920;-67
2022/08/15 02:50:34;;;;;;;;;;;19.40;99.90;;;;;;6185160;23;19921;-67
2022/08/15 02:53:07;;;;;;;;;;;19.40;99.90;;;;;;6160274;23;19920;-67
2022/08/15 02:55:33;;;;;;;;;;;19.40;99.90;;;;;;6186769;23;19999;-67
2022/08/15 02:57:58;;;;;;;;;;;19.40;99.90;;;;;;6184936;23;19951;-67
2022/08/15 03:00:24;;;;;;;;;;;19.40;99.90;;;;;;6185023;23;19920;-68
2022/08/15 03:02:54;;;;;;;;;;;19.40;99.90;;;;;;6160269;23;19920;-67
2022/08/15 03:05:21;;;;;;;;;;;19.40;99.90;;;;;;6160489;23;20324;-68
2022/08/15 03:07:46;;;;;;;;;;;19.50;99.90;;;;;;6186603;23;19959;-68
2022/08/15 03:10:12;;;;;;;;;;;19.50;99.90;;;;;;6186871;23;19924;-67
2022/08/15 03:12:53;;;;;;;;;;;19.50;99.90;;;;;;6160225;23;19920;-67
2022/08/15 03:15:32;;;;;;;;;;;19.50;99.90;;;;;;6186258;23;19920;-67
2022/08/15 03:17:58;;;;;;;;;;;19.50;99.90;;;;;;6184988;23;19924;-67
2022/08/15 03:20:24;;;;;;;;;;;19.40;99.90;;;;;;6184982;23;19921;-68
2022/08/15 03:22:51;;;;;;;;;;;19.40;99.90;;;;;;6160120;23;19920;-68
2022/08/15 03:25:17;;;;;;;;;;;19.30;99.90;;;;;;6185154;23;19944;-68
2022/08/15 03:27:43;;;;;;;;;;;19.30;99.90;;;;;;6184977;23;19920;-67
2022/08/15 03:30:10;;;;;;;;;;;19.20;99.90;;;;;;6159743;23;19931;-67
2022/08/15 03:32:43;;;;;;;;;;;19.20;99.90;;;;;;6186477;23;19920;-68
2022/08/15 03:35:09;;;;;;;;;;;19.20;99.90;;;;;;6184898;23;19966;-67
2022/08/15 03:37:36;;;;;;;;;;;19.20;99.90;;;;;;6186098;23;20352;-67
2022/08/15 03:40:03;;;;;;;;;;;19.20;99.90;;;;;;6186221;23;20003;-68
2022/08/15 03:42:29;;;;;;;;;;;19.20;99.90;;;;;;6186606;23;20254;-67
2022/08/15 03:44:54;;;;;;;;;;;19.20;99.90;;;;;;6159490;23;19928;-67
2022/08/15 03:47:21;;;;;;;;;;;19.10;99.90;;;;;;6187995;23;19927;-68
2022/08/15 03:49:47;;;;;;;;;;;19.10;99.90;;;;;;6162157;23;19979;-67
2022/08/15 03:52:13;;;;;;;;;;;19.10;99.90;;;;;;6186350;23;19920;-68
2022/08/15 03:54:39;;;;;;;;;;;19.10;99.90;;;;;;6188569;23;19987;-68
2022/08/15 03:57:05;;;;;;;;;;;19.10;99.90;;;;;;6186840;23;20555;-68
2022/08/15 03:59:30;;;;;;;;;;;19.10;99.90;;;;;;6186827;23;19920;-68
2022/08/15 04:01:56;;;;;;;;;;;19.00;99.90;;;;;;6186577;23;19928;-67
2022/08/15 04:04:21;;;;;;;;;;;19.00;99.90;;;;;;6162203;23;19920;-67
2022/08/15 04:06:47;;;;;;;;;;;19.00;99.90;;;;;;6161854;23;19994;-67
2022/08/15 04:09:12;;;;;;;;;;;19.00;99.90;;;;;;6188185;23;19928;-68
2022/08/15 04:11:38;;;;;;;;;;;19.10;99.90;;;;;;6188154;23;19991;-68
2022/08/15 04:14:06;;;;;;;;;;;19.20;99.90;;;;;;6186668;23;19920;-68
2022/08/15 04:16:32;;;;;;;;;;;19.30;99.90;;;;;;6161870;23;19955;-67
2022/08/15 04:18:58;;;;;;;;;;;19.30;99.90;;;;;;6186557;23;19920;-68
2022/08/15 04:21:23;;;;;;;;;;;19.40;99.90;;;;;;6161431;23;20275;-68
2022/08/15 04:23:49;;;;;;;;;;;19.50;99.90;;;;;;6186495;23;19920;-68
2022/08/15 04:26:16;;;;;;;;;;;19.50;99.90;;;;;;6186545;23;19924;-67
2022/08/15 04:28:43;;;;;;;;;;;19.60;99.90;;;;;;6161669;23;19959;-67
2022/08/15 04:31:10;;;;;;;;;;;19.70;99.90;;;;;;6186429;23;20360;-68
2022/08/15 04:33:36;;;;;;;;;;;19.70;99.90;;;;;;6186617;23;19987;-67
2022/08/15 04:36:07;;;;;;;;;;;19.70;99.90;;;;;;6186484;23;20298;-68
2022/08/15 04:38:32;;;;;;;;;;;19.70;99.90;;;;;;6161851;23;19927;-67
2022/08/15 04:40:58;;;;;;;;;;;19.70;99.90;;;;;;6186649;23;19991;-67
2022/08/15 04:43:24;;;;;;;;;;;19.70;99.90;;;;;;6162715;23;19927;-67
2022/08/15 04:45:50;;;;;;;;;;;19.80;99.90;;;;;;6166943;23;19923;-68
2022/08/15 04:48:16;;;;;;;;;;;19.80;99.90;;;;;;6191378;23;19970;-68
2022/08/15 04:50:43;;;;;;;;;;;19.80;99.90;;;;;;6166404;23;19919;-67
2022/08/15 04:53:09;;;;;;;;;;;19.70;99.90;;;;;;6166444;23;19920;-67
2022/08/15 04:55:35;;;;;;;;;;;19.70;99.90;;;;;;6166908;23;20235;-68
2022/08/15 04:58:01;;;;;;;;;;;19.60;99.90;;;;;;6166199;23;20328;-68
2022/08/15 05:00:28;;;;;;;;;;;19.60;99.90;;;;;;6141859;23;19927;-67
2022/08/15 05:03:06;;;;;;;;;;;19.50;99.90;;;;;;6218002;23;19920;-67
2022/08/15 05:05:33;;;;;;;;;;;19.60;99.90;;;;;;6190962;23;19970;-67
2022/08/15 05:07:59;;;;;;;;;;;19.60;99.90;;;;;;6190931;23;19955;-67
2022/08/15 05:10:25;;;;;;;;;;;19.60;99.90;;;;;;6190710;23;19916;-68
2022/08/15 05:12:50;;;;;;;;;;;19.70;99.90;;;;;;6190900;23;20343;-68
2022/08/15 05:15:18;;;;;;;;;;;19.70;99.90;;;;;;6166350;23;19920;-67
2022/08/15 05:17:45;;;;;;;;;;;19.70;99.90;;;;;;6191203;23;19927;-68
2022/08/15 05:20:14;;;;;;;;;;;19.70;99.90;;;;;;6166410;23;20246;-67
2022/08/15 05:23:02;;;;;;;;;;;19.80;99.90;;;;;;6191029;23;19990;-71
2022/08/15 05:25:29;;;;;;;;;;;19.80;99.90;;;;;;6191534;23;19966;-70
2022/08/15 05:27:55;;;;;;;;;;;19.90;99.90;;;;;;6217682;23;19926;-67
2022/08/15 05:30:22;;;;;;;;;;;20.00;99.90;;;;;;6190916;23;19955;-69
2022/08/15 05:32:59;;;;;;;;;;;20.00;99.90;;;;;;6191066;23;20417;-68
2022/08/15 05:35:24;;;;;;;;;;;20.10;99.90;;;;;;6217533;23;19927;-70
2022/08/15 05:37:51;;;;;;;;;;;20.20;99.90;;;;;;6188827;23;19920;-68
2022/08/15 05:40:17;;;;;;;;;;;20.20;99.90;;;;;;6188483;23;19931;-69
2022/08/15 05:42:50;;;;;;;;;;;20.20;99.90;;;;;;6214937;23;19920;-70
2022/08/15 05:45:19;;;;;;;;;;;20.30;99.90;;;;;;6189713;23;19920;-69
2022/08/15 05:47:54;;;;;;;;;;;20.30;99.90;;;;;;6189560;23;19999;-70
2022/08/15 05:50:33;;;;;;;;;;;20.40;99.90;;;;;;6189860;23;19960;-69
2022/08/15 05:52:58;;;;;;;;;;;20.50;99.90;;;;;;6216205;23;20357;-70
2022/08/15 05:55:24;;;;;;;;;;;20.50;99.90;;;;;;6190821;23;19963;-68
2022/08/15 05:58:08;;;;;;;;;;;20.60;99.90;;;;;;6165930;23;19927;-69
2022/08/15 06:00:34;;;;;;;;;;;20.50;99.90;;;;;;6189551;23;19946;-71
2022/08/15 06:03:03;;;;;;;;;;;20.60;99.90;;;;;;6190660;23;20042;-70
2022/08/15 06:05:31;;;;;;;;;;;20.70;99.90;;;;;;6190818;23;20014;-67
2022/08/15 06:07:59;;;;;;;;;;;20.80;99.90;;;;;;6190646;23;19924;-70
2022/08/15 06:24:52;;;;;;;;;;;22.00;99.90;;;;;;6009309;23;20331;-74
2022/08/15 06:28:16;;;;;;;;;;;22.10;99.90;;;;;;6084818;23;19980;-74
2022/08/15 06:31:13;;;;;;;;;;;;;;;;;;;;;
2022/08/15 06:33:50;;;;;;;;;;;22.40;99.90;;;;;;6099174;23;20391;-73
2022/08/15 06:36:31;;;;;;;;;;;22.40;99.90;;;;;;6144970;23;19917;-72
2022/08/15 06:39:04;;;;;;;;;;;22.30;99.90;;;;;;6159068;23;20044;-72
2022/08/15 06:42:04;;;;;;;;;;;22.60;99.90;;;;;;6135018;23;19920;-71
2022/08/15 06:44:35;;;;;;;;;;;22.90;99.90;;;;;;6133405;23;19950;-71
2022/08/15 06:47:13;;;;;;;;;;;23.20;99.90;;;;;;6135610;23;19962;-71
2022/08/15 06:49:49;;;;;;;;;;;23.50;99.90;;;;;;6132548;23;20364;-72
2022/08/15 06:52:44;;;;;;;;;;;23.60;99.90;;;;;;6158550;23;20315;-72
2022/08/15 06:55:25;;;;;;;;;;;23.70;99.90;;;;;;6139629;23;19916;-72
2022/08/15 06:58:09;;;;;;;;;;;23.70;99.90;;;;;;6134731;23;19951;-72
2022/08/15 07:04:01;;;;;;;;;;;24.20;99.90;;;;;;6144029;23;20355;-71
2022/08/15 07:06:37;;;;;;;;;;;24.50;99.90;;;;;;6160201;23;19951;-72
2022/08/15 07:09:26;;;;;;;;;;;24.70;99.90;;;;;;6159926;23;19995;-72
2022/08/15 07:12:26;;;;;;;;;;;24.90;99.90;;;;;;6064768;23;19916;-72
2022/08/15 07:15:20;;;;;;;;;;;25.10;99.90;;;;;;6142545;23;20280;-72
2022/08/15 07:21:15;;;;;;;;;;;;;;;;;;;;;
2022/08/15 07:24:20;;;;;;;;;;;25.50;99.90;;;;;;6044511;23;19917;-72
2022/08/15 07:27:31;;;;;;;;;;;25.70;99.90;;;;;;6153911;23;20275;-72
2022/08/15 07:30:57;;;;;;;;;;;26.00;99.90;;;;;;6102222;23;19923;-72
2022/08/15 07:39:59;;;;;;;;;;;26.30;99.90;;;;;;6151520;23;19917;-72
2022/08/15 07:43:15;;;;;;;;;;;26.50;99.90;;;;;;6103645;23;19952;-72
2022/08/15 07:46:21;;;;;;;;;;;26.80;99.90;;;;;;6083718;23;19921;-71
2022/08/15 07:52:36;;;;;;;;;;;27.40;99.90;;;;;;6169126;23;19916;-72
2022/08/15 07:56:04;;;;;;;;;;;27.60;99.90;;;;;;6163238;23;19917;-73
2022/08/15 07:59:14;;;;;;;;;;;;;;;;;;;;;
2022/08/15 08:08:48;;;;;;;;;;;28.10;99.90;;;;;;6037425;23;19917;-72
2022/08/15 08:15:25;;;;;;;;;;;28.20;99.90;;;;;;6037377;23;19916;-70
2022/08/15 08:21:23;;;;;;;;;;;28.60;99.90;;;;;;5952227;24;19949;-72
2022/08/15 08:27:39;;;;;;;;;;;29.00;99.10;;;;;;5978626;24;19923;-74
2022/08/15 08:30:44;;;;;;;;;;;29.10;97.30;;;;;;5933419;24;19926;-75
2022/08/15 08:33:38;;;;;;;;;;;29.20;97.80;;;;;;6058746;23;19967;-75
2022/08/15 08:42:57;;;;;;;;;;;29.40;96.50;;;;;;6070838;23;20362;-71
2022/08/15 08:45:25;;;;;;;;;;;29.60;96.60;;;;;;6070024;23;19917;-72
2022/08/15 08:48:15;;;;;;;;;;;29.60;96.70;;;;;;6047243;23;20376;-71
2022/08/15 08:50:49;;;;;;;;;;;29.60;97.40;;;;;;6071038;23;19921;-72
2022/08/15 08:53:21;;;;;;;;;;;29.80;97.50;;;;;;6095667;23;20347;-71
2022/08/15 08:55:47;;;;;;;;;;;29.90;97.40;;;;;;6048392;23;19972;-72
2022/08/15 08:58:20;;;;;;;;;;;29.70;97.60;;;;;;6128955;23;19920;-72
2022/08/15 09:00:47;;;;;;;;;;;29.70;97.60;;;;;;6136301;23;19924;-71
2022/08/15 09:03:14;;;;;;;;;;;29.60;97.90;;;;;;6137052;23;19926;-71
2022/08/15 09:05:49;;;;;;;;;;;29.70;97.80;;;;;;6136647;23;19920;-71
2022/08/15 09:08:16;;;;;;;;;;;29.70;97.30;;;;;;6187901;23;19921;-72
2022/08/15 09:10:44;;;;;;;;;;;29.50;98.30;;;;;;6161263;23;20357;-71
2022/08/15 09:15:55;;;;;;;;;;;29.20;98.20;;;;;;6161055;23;19921;-71
2022/08/15 09:18:26;;;;;;;;;;;29.10;98.40;;;;;;6161364;23;19956;-72
2022/08/15 09:20:51;;;;;;;;;;;29.10;99.00;;;;;;6161370;23;19952;-71
2022/08/15 09:23:17;;;;;;;;;;;29.00;97.90;;;;;;6136388;23;20340;-71
2022/08/15 09:26:03;;;;;;;;;;;29.20;98.20;;;;;;6187318;23;19920;-72
2022/08/15 09:28:32;;;;;;;;;;;28.90;98.50;;;;;;6159090;23;20255;-72
2022/08/15 09:31:01;;;;;;;;;;;29.00;98.10;;;;;;6161237;23;20458;-71
2022/08/15 09:33:36;;;;;;;;;;;29.30;98.40;;;;;;6161172;23;19931;-71
2022/08/15 09:36:01;;;;;;;;;;;29.50;98.20;;;;;;6136765;23;19920;-72
2022/08/15 09:38:36;;;;;;;;;;;29.70;98.40;;;;;;6136643;23;19920;-72
2022/08/15 09:41:21;;;;;;;;;;;29.80;99.40;;;;;;6161156;23;19959;-72
2022/08/15 09:44:08;;;;;;;;;;;29.40;99.90;;;;;;6162775;23;19920;-72
2022/08/15 09:46:48;;;;;;;;;;;29.80;99.90;;;;;;6191119;23;20304;-71
2022/08/15 09:49:32;;;;;;;;;;;29.80;99.90;;;;;;6166489;23;19923;-71
2022/08/15 09:52:05;;;;;;;;;;;30.00;99.90;;;;;;6217538;23;19955;-71
2022/08/15 09:54:33;;;;;;;;;;;30.00;99.90;;;;;;6191019;23;19927;-72
2022/08/15 09:57:20;;;;;;;;;;;30.10;99.90;;;;;;6191299;23;19920;-71
2022/08/15 09:59:49;;;;;;;;;;;30.10;99.90;;;;;;6165979;23;20315;-73
2022/08/15 10:02:15;;;;;;;;;;;29.90;99.90;;;;;;6192294;23;19927;-72
2022/08/15 10:04:49;;;;;;;;;;;30.10;99.90;;;;;;6191148;23;19927;-71
2022/08/15 10:07:15;;;;;;;;;;;30.10;99.90;;;;;;6166279;23;20338;-73
2022/08/15 10:09:42;;;;;;;;;;;30.20;99.90;;;;;;6190496;23;19950;-72
2022/08/15 10:12:08;;;;;;;;;;;30.20;99.90;;;;;;6166020;23;19955;-71
2022/08/15 10:14:40;;;;;;;;;;;30.30;99.90;;;;;;6190349;23;19920;-73
2022/08/15 10:20:22;;;;;;;;;;;30.40;99.90;;;;;;6174677;23;19920;-76
2022/08/15 10:23:01;;;;;;;;;;;30.50;99.90;;;;;;6191592;23;20247;-76
2022/08/15 10:25:28;;;;;;;;;;;30.50;99.90;;;;;;6164016;23;19920;-75
2022/08/15 10:27:55;;;;;;;;;;;30.50;99.90;;;;;;6188785;23;20331;-74
2022/08/15 10:34:11;;;;;;;;;;;30.50;99.90;;;;;;6214777;23;19931;-76
2022/08/15 10:36:37;;;;;;;;;;;30.40;99.70;;;;;;6161588;23;20006;-81
2022/08/15 10:39:25;;;;;;;;;;;30.30;99.30;;;;;;6188226;23;19920;-74
2022/08/15 10:49:05;;;;;;;;;;;29.90;98.10;;;;;;6123993;23;19943;-79
2022/08/15 10:55:26;;;;;;;;;;;29.60;98.20;;;;;;6096495;23;19995;-78
2022/08/15 11:01:46;;;;;;;;;;;;;;;;;;;;;
2022/08/15 11:11:10;;;;;;;;;;;29.50;97.10;;;;;;6014037;23;19918;-80
2022/08/15 11:14:26;;;;;;;;;;;29.40;95.50;;;;;;6100608;23;20293;-76
2022/08/15 11:17:28;;;;;;;;;;;29.40;95.70;;;;;;6082933;23;19921;-78
2022/08/15 11:20:02;;;;;;;;;;;29.50;96.10;;;;;;6098282;23;20268;-78
2022/08/15 11:22:29;;;;;;;;;;;29.70;95.60;;;;;;6073370;23;19936;-79
2022/08/15 11:25:03;;;;;;;;;;;29.70;95.20;;;;;;6097977;23;19944;-78
2022/08/15 11:27:31;;;;;;;;;;;29.70;93.90;;;;;;6074663;23;19968;-78
2022/08/15 11:29:58;;;;;;;;;;;29.70;94.30;;;;;;6123032;23;19921;-80
2022/08/15 11:32:24;;;;;;;;;;;29.90;93.20;;;;;;6179759;23;19923;-83
2022/08/15 11:34:51;;;;;;;;;;;30.10;92.80;;;;;;6163864;23;19916;-84
2022/08/15 11:37:19;;;;;;;;;;;30.20;92.50;;;;;;6188329;23;19923;-80
2022/08/15 11:40:22;;;;;;;;;;;;;;;;;;;;;
2022/08/15 11:42:59;;;;;;;;;;;30.40;92.00;;;;;;6188064;23;20278;-82
2022/08/15 11:45:30;;;;;;;;;;;30.10;91.80;;;;;;6214670;23;19915;-72
2022/08/15 11:55:14;;;;;;;;;;;29.20;91.80;;;;;;6245328;22;19927;-77
2022/08/15 11:58:01;;;;;;;;;;;29.00;92.30;;;;;;6195986;23;19959;-77
2022/08/15 12:10:53;;;;;;;;;;;28.60;92.90;;;;;;6154347;23;20320;-75
2022/08/15 12:14:04;;;;;;;;;;;28.60;92.40;;;;;;6155612;23;19915;-73
2022/08/15 13:26:50;;;;;;;;;;;29.00;92.70;;;;;;6157331;23;20251;-73
2022/08/15 13:33:17;;;;;;;;;;;29.80;91.00;;;;;;6138809;23;19916;-73
2022/08/15 13:49:59;;;;;;;;;;;29.70;91.40;;;;;;5980892;24;20001;-73
2022/08/15 13:52:25;;;;;;;;;;;29.80;91.50;;;;;;5959273;23;19926;-80
2022/08/15 13:54:50;;;;;;;;;;;29.80;91.80;;;;;;5991464;23;19921;-78
2022/08/15 13:57:19;;;;;;;;;;;30.00;91.90;;;;;;6101093;23;19966;-77
2022/08/15 13:59:45;;;;;;;;;;;29.90;92.00;;;;;;6132485;23;19921;-77
2022/08/15 14:02:12;;;;;;;;;;;30.00;92.00;;;;;;6119275;23;19920;-76
2022/08/15 14:04:39;;;;;;;;;;;30.10;91.70;;;;;;6165029;23;19917;-75
2022/08/15 14:07:06;;;;;;;;;;;30.20;91.40;;;;;;6160536;23;19923;-78
2022/08/15 14:09:32;;;;;;;;;;;30.20;91.40;;;;;;6136072;23;19916;-77
2022/08/15 14:11:58;;;;;;;;;;;30.10;91.20;;;;;;6185113;23;19939;-75
2022/08/15 14:14:38;;;;;;;;;;;30.00;91.40;;;;;;6160865;23;19931;-80
2022/08/15 14:17:05;;;;;;;;;;;29.80;91.00;;;;;;6185998;23;19947;-80
2022/08/15 14:19:32;;;;;;;;;;;29.70;91.30;;;;;;6160538;23;19920;-80
2022/08/15 14:21:58;;;;;;;;;;;29.80;91.80;;;;;;6135955;23;19925;-78
2022/08/15 14:24:29;;;;;;;;;;;30.00;91.50;;;;;;6135966;23;20354;-78
2022/08/15 14:27:05;;;;;;;;;;;30.30;91.00;;;;;;6137371;23;19971;-76
2022/08/15 14:29:36;;;;;;;;;;;30.10;90.80;;;;;;6135190;23;19927;-82
2022/08/15 14:32:14;;;;;;;;;;;29.90;91.40;;;;;;6159927;23;19921;-78
2022/08/15 14:42:02;;;;;;;;;;;29.30;92.50;;;;;;6184645;23;19916;-74
2022/08/15 15:44:47;;;;;;;;;;;27.80;94.80;;;;;;6249903;23;19923;-78
2022/08/15 15:47:13;;;;;;;;;;;27.70;95.10;;;;;;6248488;23;19920;-78
2022/08/15 15:49:40;;;;;;;;;;;27.40;95.30;;;;;;6223118;23;19954;-77
2022/08/15 15:52:08;;;;;;;;;;;27.20;95.30;;;;;;6249038;22;19922;-77
2022/08/15 15:54:33;;;;;;;;;;;27.10;95.50;;;;;;6223485;23;19938;-79
2022/08/15 15:56:59;;;;;;;;;;;27.20;95.80;;;;;;6223548;23;20326;-78
2022/08/15 15:59:24;;;;;;;;;;;27.20;95.50;;;;;;6248787;23;19923;-80
2022/08/15 16:01:50;;;;;;;;;;;27.50;95.50;;;;;;6222972;23;20231;-77
2022/08/15 16:04:16;;;;;;;;;;;27.80;95.30;;;;;;6223026;23;19915;-77
2022/08/15 16:06:42;;;;;;;;;;;28.10;94.90;;;;;;6222900;23;20349;-80
2022/08/15 16:09:08;;;;;;;;;;;28.30;94.30;;;;;;6198600;23;19923;-80
2022/08/15 16:11:41;;;;;;;;;;;28.30;94.30;;;;;;6223260;23;19915;-78
2022/08/15 16:14:09;;;;;;;;;;;28.10;94.60;;;;;;6223632;23;19970;-79
2022/08/15 16:16:42;;;;;;;;;;;27.90;94.20;;;;;;6248385;23;19938;-77
2022/08/15 16:19:13;;;;;;;;;;;27.60;94.10;;;;;;6248168;23;19919;-78
2022/08/15 16:21:43;;;;;;;;;;;27.40;94.70;;;;;;6222013;23;19995;-73
2022/08/15 16:24:12;;;;;;;;;;;27.10;94.90;;;;;;6248091;23;19916;-73
2022/08/15 16:30:00;;;;;;;;;;;26.70;95.80;;;;;;6161610;23;19924;-75
2022/08/15 16:32:28;;;;;;;;;;;26.50;96.10;;;;;;6194992;23;19961;-76
2022/08/15 16:34:57;;;;;;;;;;;26.30;96.40;;;;;;6222564;23;20346;-72
2022/08/15 16:37:42;;;;;;;;;;;26.20;96.50;;;;;;6222613;23;20378;-76
2022/08/15 16:40:37;;;;;;;;;;;26.10;96.70;;;;;;6220644;23;19920;-76
2022/08/15 16:43:11;;;;;;;;;;;26.00;96.70;;;;;;6248846;22;19919;-77
2022/08/15 16:45:40;;;;;;;;;;;25.90;97.00;;;;;;6247725;23;19916;-73
2022/08/15 16:48:09;;;;;;;;;;;25.80;96.70;;;;;;6247417;23;20344;-73
2022/08/15 16:50:56;;;;;;;;;;;25.70;96.50;;;;;;6247568;23;19946;-75
2022/08/15 16:53:37;;;;;;;;;;;25.70;96.80;;;;;;6248476;22;19990;-75
2022/08/15 16:56:10;;;;;;;;;;;25.50;96.80;;;;;;6222119;23;19998;-75
2022/08/15 16:58:45;;;;;;;;;;;25.40;97.30;;;;;;6223651;23;19919;-76
2022/08/15 17:01:23;;;;;;;;;;;25.30;97.30;;;;;;6224418;23;19946;-75
2022/08/15 17:04:14;;;;;;;;;;;25.20;97.70;;;;;;6247566;23;20293;-75
2022/08/15 17:06:46;;;;;;;;;;;25.10;97.70;;;;;;6246665;23;19919;-75
2022/08/15 17:09:31;;;;;;;;;;;25.00;98.10;;;;;;6246210;23;19920;-70
2022/08/15 17:12:23;;;;;;;;;;;25.00;98.20;;;;;;6220668;23;19920;-72
2022/08/15 17:21:45;;;;;;;;;;;24.80;99.10;;;;;;6184469;23;19991;-73
2022/08/15 17:24:34;;;;;;;;;;;24.70;99.40;;;;;;6136932;23;19927;-71
2022/08/15 17:27:09;;;;;;;;;;;24.60;99.60;;;;;;6159465;23;19923;-70
2022/08/15 17:29:49;;;;;;;;;;;24.60;99.90;;;;;;6158902;23;20331;-71
2022/08/15 17:32:25;;;;;;;;;;;24.50;99.90;;;;;;6179598;23;19979;-71
2022/08/15 17:34:57;;;;;;;;;;;24.50;99.90;;;;;;6175396;23;20293;-71
2022/08/15 17:37:44;;;;;;;;;;;24.40;99.90;;;;;;6243734;23;19938;-71
2022/08/15 17:40:13;;;;;;;;;;;24.40;99.90;;;;;;6220096;23;20262;-69
2022/08/15 17:42:40;;;;;;;;;;;24.40;99.90;;;;;;6220445;23;20302;-72
2022/08/15 17:45:11;;;;;;;;;;;24.30;99.90;;;;;;6247408;22;19916;-75
2022/08/15 17:48:27;;;;;;;;;;;24.30;99.90;;;;;;6245868;23;20307;-73
2022/08/15 17:51:14;;;;;;;;;;;24.20;99.90;;;;;;6160346;23;19916;-73
2022/08/15 17:53:57;;;;;;;;;;;24.20;99.90;;;;;;6220947;23;19915;-72
2022/08/15 17:56:40;;;;;;;;;;;24.10;99.90;;;;;;6246180;23;19915;-73
2022/08/15 17:59:11;;;;;;;;;;;24.10;99.90;;;;;;6220709;23;19977;-72
2022/08/15 18:01:37;;;;;;;;;;;24.00;99.90;;;;;;6245625;22;20381;-72
2022/08/15 18:04:04;;;;;;;;;;;24.00;99.90;;;;;;6220174;23;19916;-72
2022/08/15 18:06:50;;;;;;;;;;;24.00;99.90;;;;;;6246974;22;19969;-71
2022/08/15 18:09:46;;;;;;;;;;;;;;;;;;;;;
2022/08/15 18:12:31;;;;;;;;;;;23.90;99.90;;;;;;6246982;22;19957;-72
2022/08/15 18:15:15;;;;;;;;;;;23.80;99.90;;;;;;6243760;23;19927;-72
2022/08/15 18:17:54;;;;;;;;;;;23.90;99.90;;;;;;6235309;23;19966;-72
2022/08/15 18:21:01;;;;;;;;;;;23.70;99.90;;;;;;6246961;23;19919;-73
2022/08/15 18:26:50;;;;;;;;;;;23.70;99.90;;;;;;6243705;23;19926;-71
2022/08/15 18:30:00;;;;;;;;;;;23.60;99.90;;;;;;6246840;22;20342;-75
2022/08/15 18:36:42;;;;;;;;;;;23.60;99.90;;;;;;6102633;23;19917;-72
2022/08/15 18:42:37;;;;;;;;;;;;;;;;;;;;;
2022/08/15 18:52:35;;;;;;;;;;;23.20;99.90;;;;;;6022002;23;20304;-70
2022/08/15 19:13:28;;;;;;;;;;;22.80;99.90;;;;;;6040965;23;19916;-72
2022/08/15 19:52:14;;;;;;;;;;;22.40;99.90;;;;;;5965052;23;20313;-71
2022/08/15 19:55:32;;;;;;;;;;;22.40;99.90;;;;;;5963145;23;19940;-70
2022/08/15 19:58:28;;;;;;;;;;;22.40;99.90;;;;;;5970268;23;19922;-71
2022/08/15 20:01:15;;;;;;;;;;;22.40;99.90;;;;;;6008557;23;19918;-70
2022/08/15 20:11:26;;;;;;;;;;;22.20;99.90;;;;;;5994825;23;19946;-71
2022/08/15 20:14:16;;;;;;;;;;;22.20;99.90;;;;;;6157725;23;20248;-76
2022/08/15 20:17:04;;;;;;;;;;;22.20;99.90;;;;;;6244214;23;19915;-71
2022/08/15 20:19:42;;;;;;;;;;;22.20;99.90;;;;;;6241458;23;20216;-70
2022/08/15 20:22:24;;;;;;;;;;;22.10;99.90;;;;;;6218825;23;19937;-72
2022/08/15 20:25:29;;;;;;;;;;;;;;;;;;;;;
2022/08/15 20:28:17;;;;;;;;;;;22.10;99.90;;;;;;6245999;22;19989;-71
2022/08/15 20:30:53;;;;;;;;;;;22.10;99.90;;;;;;6222800;23;19915;-71
2022/08/15 20:33:22;;;;;;;;;;;22.10;99.90;;;;;;6246376;22;19915;-71
2022/08/15 20:36:01;;;;;;;;;;;22.00;99.90;;;;;;6220991;23;19938;-71
2022/08/15 20:38:34;;;;;;;;;;;22.00;99.90;;;;;;6247803;22;19920;-71
2022/08/15 20:41:08;;;;;;;;;;;21.90;99.90;;;;;;6220752;23;19919;-70
2022/08/15 20:43:33;;;;;;;;;;;21.90;99.90;;;;;;6220687;23;20227;-71
2022/08/15 20:46:21;;;;;;;;;;;21.80;99.90;;;;;;6246131;23;19927;-71
2022/08/15 20:48:54;;;;;;;;;;;21.80;99.90;;;;;;6218753;23;19926;-70
2022/08/15 20:51:27;;;;;;;;;;;21.70;99.90;;;;;;6247443;22;19920;-71
2022/08/15 20:53:53;;;;;;;;;;;21.70;99.90;;;;;;6220575;23;19919;-71